sensor_id;sensor_type;location;lat;lon;timestamp;P1;durP1;ratioP1;P2;durP2;ratioP2
3054;SDS011;1537;52.018;8.542;2024-03-08T00:03:35;29.10;;;24.43;;
3054;SDS011;1537;52.018;8.542;2024-03-08T00:07:00;27.30;;;23.90;;
3054;SDS011;1537;52.018;8.542;2024-03-08T00:10:24;31.63;;;24.47;;
3054;SDS011;1537;52.018;8.542;2024-03-08T00:13:52;30.30;;;23.90;;
3054;SDS011;1537;52.018;8.542;2024-03-08T00:17:17;31.20;;;26.17;;
3054;SDS011;1537;52.018;8.542;2024-03-08T00:20:44;31.30;;;24.30;;
3054;SDS011;1537;52.018;8.542;2024-03-08T00:27:41;30.13;;;26.17;;
3054;SDS011;1537;52.018;8.542;2024-03-08T00:31:07;27.37;;;24.37;;
3054;SDS011;1537;52.018;8.542;2024-03-08T00:34:34;28.20;;;23.43;;
3054;SDS011;1537;52.018;8.542;2024-03-08T00:38:00;31.40;;;23.63;;
3054;SDS011;1537;52.018;8.542;2024-03-08T00:41:25;28.10;;;24.23;;
3054;SDS011;1537;52.018;8.542;2024-03-08T00:44:49;30.20;;;25.37;;
3054;SDS011;1537;52.018;8.542;2024-03-08T00:48:15;29.73;;;26.53;;
3054;SDS011;1537;52.018;8.542;2024-03-08T00:51:40;27.47;;;24.67;;
3054;SDS011;1537;52.018;8.542;2024-03-08T00:55:04;32.70;;;25.73;;
3054;SDS011;1537;52.018;8.542;2024-03-08T00:58:33;27.53;;;24.60;;
3054;SDS011;1537;52.018;8.542;2024-03-08T01:01:57;30.00;;;25.97;;
3054;SDS011;1537;52.018;8.542;2024-03-08T01:05:25;33.13;;;26.30;;
3054;SDS011;1537;52.018;8.542;2024-03-08T01:08:50;27.00;;;23.63;;
3054;SDS011;1537;52.018;8.542;2024-03-08T01:12:15;32.10;;;25.20;;
3054;SDS011;1537;52.018;8.542;2024-03-08T01:15:42;31.13;;;26.40;;
3054;SDS011;1537;52.018;8.542;2024-03-08T01:19:06;29.33;;;25.07;;
3054;SDS011;1537;52.018;8.542;2024-03-08T01:22:32;27.20;;;24.20;;
3054;SDS011;1537;52.018;8.542;2024-03-08T01:25:56;28.97;;;23.80;;
3054;SDS011;1537;52.018;8.542;2024-03-08T01:29:20;31.53;;;25.13;;
3054;SDS011;1537;52.018;8.542;2024-03-08T01:32:45;28.17;;;24.20;;
3054;SDS011;1537;52.018;8.542;2024-03-08T01:36:09;32.67;;;24.83;;
3054;SDS011;1537;52.018;8.542;2024-03-08T01:39:34;28.67;;;25.60;;
3054;SDS011;1537;52.018;8.542;2024-03-08T01:46:42;32.10;;;27.33;;
3054;SDS011;1537;52.018;8.542;2024-03-08T01:50:07;31.40;;;25.50;;
3054;SDS011;1537;52.018;8.542;2024-03-08T01:53:33;28.87;;;25.83;;
3054;SDS011;1537;52.018;8.542;2024-03-08T01:57:00;31.23;;;27.93;;
3054;SDS011;1537;52.018;8.542;2024-03-08T02:00:32;32.53;;;27.60;;
3054;SDS011;1537;52.018;8.542;2024-03-08T02:03:57;29.77;;;25.70;;
3054;SDS011;1537;52.018;8.542;2024-03-08T02:07:21;31.90;;;26.57;;
3054;SDS011;1537;52.018;8.542;2024-03-08T02:10:45;31.37;;;27.97;;
3054;SDS011;1537;52.018;8.542;2024-03-08T02:14:11;29.27;;;25.67;;
3054;SDS011;1537;52.018;8.542;2024-03-08T02:17:36;32.20;;;28.20;;
3054;SDS011;1537;52.018;8.542;2024-03-08T02:21:04;33.80;;;29.57;;
3054;SDS011;1537;52.018;8.542;2024-03-08T02:24:32;31.90;;;28.37;;
3054;SDS011;1537;52.018;8.542;2024-03-08T02:27:57;32.07;;;28.60;;
3054;SDS011;1537;52.018;8.542;2024-03-08T02:31:21;32.27;;;28.27;;
3054;SDS011;1537;52.018;8.542;2024-03-08T02:34:45;37.47;;;31.00;;
3054;SDS011;1537;52.018;8.542;2024-03-08T02:38:10;34.87;;;31.20;;
3054;SDS011;1537;52.018;8.542;2024-03-08T02:41:34;36.60;;;30.20;;
3054;SDS011;1537;52.018;8.542;2024-03-08T02:44:58;33.10;;;29.50;;
3054;SDS011;1537;52.018;8.542;2024-03-08T02:48:22;31.40;;;27.93;;
3054;SDS011;1537;52.018;8.542;2024-03-08T02:51:47;34.93;;;29.80;;
3054;SDS011;1537;52.018;8.542;2024-03-08T02:55:13;37.03;;;31.23;;
3054;SDS011;1537;52.018;8.542;2024-03-08T02:58:39;33.23;;;29.10;;
3054;SDS011;1537;52.018;8.542;2024-03-08T03:02:04;33.07;;;29.47;;
3054;SDS011;1537;52.018;8.542;2024-03-08T03:05:30;37.00;;;31.47;;
3054;SDS011;1537;52.018;8.542;2024-03-08T03:08:54;34.67;;;30.97;;
3054;SDS011;1537;52.018;8.542;2024-03-08T03:12:20;37.37;;;30.83;;
3054;SDS011;1537;52.018;8.542;2024-03-08T03:15:46;31.73;;;28.27;;
3054;SDS011;1537;52.018;8.542;2024-03-08T03:19:10;35.10;;;28.80;;
3054;SDS011;1537;52.018;8.542;2024-03-08T03:22:37;36.73;;;29.23;;
3054;SDS011;1537;52.018;8.542;2024-03-08T03:26:02;37.63;;;29.80;;
3054;SDS011;1537;52.018;8.542;2024-03-08T03:29:30;35.20;;;29.47;;
3054;SDS011;1537;52.018;8.542;2024-03-08T03:32:55;33.50;;;29.93;;
3054;SDS011;1537;52.018;8.542;2024-03-08T03:36:23;32.97;;;28.40;;
3054;SDS011;1537;52.018;8.542;2024-03-08T03:39:47;37.40;;;30.37;;
3054;SDS011;1537;52.018;8.542;2024-03-08T03:43:12;37.87;;;30.53;;
3054;SDS011;1537;52.018;8.542;2024-03-08T03:46:37;34.10;;;30.40;;
3054;SDS011;1537;52.018;8.542;2024-03-08T03:50:07;37.10;;;30.20;;
3054;SDS011;1537;52.018;8.542;2024-03-08T03:53:33;40.70;;;31.30;;
3054;SDS011;1537;52.018;8.542;2024-03-08T03:56:57;37.60;;;31.50;;
3054;SDS011;1537;52.018;8.542;2024-03-08T04:00:21;37.47;;;30.73;;
3054;SDS011;1537;52.018;8.542;2024-03-08T04:03:46;37.73;;;30.70;;
3054;SDS011;1537;52.018;8.542;2024-03-08T04:07:11;38.37;;;32.83;;
3054;SDS011;1537;52.018;8.542;2024-03-08T04:10:35;37.23;;;32.03;;
3054;SDS011;1537;52.018;8.542;2024-03-08T04:13:59;36.93;;;32.93;;
3054;SDS011;1537;52.018;8.542;2024-03-08T04:17:23;37.27;;;31.90;;
3054;SDS011;1537;52.018;8.542;2024-03-08T04:20:54;37.17;;;30.50;;
3054;SDS011;1537;52.018;8.542;2024-03-08T04:24:19;35.20;;;29.00;;
3054;SDS011;1537;52.018;8.542;2024-03-08T04:27:46;39.03;;;31.03;;
3054;SDS011;1537;52.018;8.542;2024-03-08T04:31:12;34.70;;;29.27;;
3054;SDS011;1537;52.018;8.542;2024-03-08T04:34:38;35.40;;;29.47;;
3054;SDS011;1537;52.018;8.542;2024-03-08T04:38:08;39.70;;;31.23;;
3054;SDS011;1537;52.018;8.542;2024-03-08T04:41:33;40.07;;;31.20;;
3054;SDS011;1537;52.018;8.542;2024-03-08T04:45:00;35.27;;;30.00;;
3054;SDS011;1537;52.018;8.542;2024-03-08T04:48:27;37.00;;;30.77;;
3054;SDS011;1537;52.018;8.542;2024-03-08T04:51:52;35.47;;;30.90;;
3054;SDS011;1537;52.018;8.542;2024-03-08T04:55:17;37.03;;;31.43;;
3054;SDS011;1537;52.018;8.542;2024-03-08T04:58:43;40.67;;;31.10;;
3054;SDS011;1537;52.018;8.542;2024-03-08T05:02:09;41.77;;;32.97;;
3054;SDS011;1537;52.018;8.542;2024-03-08T05:05:34;33.40;;;28.37;;
3054;SDS011;1537;52.018;8.542;2024-03-08T05:08:59;35.00;;;29.77;;
3054;SDS011;1537;52.018;8.542;2024-03-08T05:12:26;36.43;;;30.17;;
3054;SDS011;1537;52.018;8.542;2024-03-08T05:15:50;35.77;;;29.50;;
3054;SDS011;1537;52.018;8.542;2024-03-08T05:19:14;39.37;;;31.60;;
3054;SDS011;1537;52.018;8.542;2024-03-08T05:22:40;39.30;;;32.57;;
3054;SDS011;1537;52.018;8.542;2024-03-08T05:26:04;36.73;;;30.93;;
3054;SDS011;1537;52.018;8.542;2024-03-08T05:29:32;38.90;;;32.03;;
3054;SDS011;1537;52.018;8.542;2024-03-08T05:32:56;41.63;;;34.90;;
3054;SDS011;1537;52.018;8.542;2024-03-08T05:36:21;43.93;;;33.37;;
3054;SDS011;1537;52.018;8.542;2024-03-08T05:39:45;41.87;;;32.87;;
3054;SDS011;1537;52.018;8.542;2024-03-08T05:43:09;42.13;;;33.77;;
3054;SDS011;1537;52.018;8.542;2024-03-08T05:46:35;36.97;;;32.77;;
3054;SDS011;1537;52.018;8.542;2024-03-08T05:50:00;42.87;;;34.30;;
3054;SDS011;1537;52.018;8.542;2024-03-08T05:53:26;39.80;;;32.73;;
3054;SDS011;1537;52.018;8.542;2024-03-08T05:56:50;39.00;;;32.13;;
3054;SDS011;1537;52.018;8.542;2024-03-08T06:00:16;41.70;;;33.57;;
3054;SDS011;1537;52.018;8.542;2024-03-08T06:03:45;44.30;;;33.80;;
3054;SDS011;1537;52.018;8.542;2024-03-08T06:07:11;41.00;;;35.03;;
3054;SDS011;1537;52.018;8.542;2024-03-08T06:10:35;45.00;;;35.80;;
3054;SDS011;1537;52.018;8.542;2024-03-08T06:14:00;43.07;;;34.10;;
3054;SDS011;1537;52.018;8.542;2024-03-08T06:17:24;37.60;;;31.37;;
3054;SDS011;1537;52.018;8.542;2024-03-08T06:20:51;38.97;;;31.53;;
3054;SDS011;1537;52.018;8.542;2024-03-08T06:24:17;38.80;;;33.50;;
3054;SDS011;1537;52.018;8.542;2024-03-08T06:27:43;41.10;;;32.93;;
3054;SDS011;1537;52.018;8.542;2024-03-08T06:31:08;43.30;;;31.83;;
3054;SDS011;1537;52.018;8.542;2024-03-08T06:34:33;36.37;;;31.77;;
3054;SDS011;1537;52.018;8.542;2024-03-08T06:37:58;43.93;;;35.30;;
3054;SDS011;1537;52.018;8.542;2024-03-08T06:41:23;42.17;;;34.03;;
3054;SDS011;1537;52.018;8.542;2024-03-08T06:44:47;40.67;;;33.63;;
3054;SDS011;1537;52.018;8.542;2024-03-08T06:48:12;53.37;;;36.53;;
3054;SDS011;1537;52.018;8.542;2024-03-08T06:51:39;39.07;;;31.87;;
3054;SDS011;1537;52.018;8.542;2024-03-08T06:55:05;39.37;;;32.70;;
3054;SDS011;1537;52.018;8.542;2024-03-08T06:58:29;39.97;;;32.70;;
3054;SDS011;1537;52.018;8.542;2024-03-08T07:01:55;41.63;;;34.20;;
3054;SDS011;1537;52.018;8.542;2024-03-08T07:05:19;34.63;;;29.23;;
3054;SDS011;1537;52.018;8.542;2024-03-08T07:08:50;43.93;;;33.30;;
3054;SDS011;1537;52.018;8.542;2024-03-08T07:12:16;34.33;;;29.97;;
3054;SDS011;1537;52.018;8.542;2024-03-08T07:15:40;33.47;;;27.60;;
3054;SDS011;1537;52.018;8.542;2024-03-08T07:19:04;35.00;;;25.93;;
3054;SDS011;1537;52.018;8.542;2024-03-08T07:22:31;34.60;;;22.87;;
3054;SDS011;1537;52.018;8.542;2024-03-08T07:25:57;35.50;;;25.07;;
3054;SDS011;1537;52.018;8.542;2024-03-08T07:29:22;36.70;;;23.17;;
3054;SDS011;1537;52.018;8.542;2024-03-08T07:32:46;33.07;;;20.77;;
3054;SDS011;1537;52.018;8.542;2024-03-08T07:36:10;27.10;;;21.70;;
3054;SDS011;1537;52.018;8.542;2024-03-08T07:39:34;27.17;;;22.07;;
3054;SDS011;1537;52.018;8.542;2024-03-08T07:42:58;32.93;;;22.30;;
3054;SDS011;1537;52.018;8.542;2024-03-08T07:46:23;27.50;;;20.87;;
3054;SDS011;1537;52.018;8.542;2024-03-08T07:49:51;30.20;;;22.50;;
3054;SDS011;1537;52.018;8.542;2024-03-08T07:53:19;27.10;;;21.10;;
3054;SDS011;1537;52.018;8.542;2024-03-08T07:56:47;26.80;;;21.50;;
3054;SDS011;1537;52.018;8.542;2024-03-08T08:00:14;32.90;;;23.47;;
3054;SDS011;1537;52.018;8.542;2024-03-08T08:03:42;28.87;;;20.50;;
3054;SDS011;1537;52.018;8.542;2024-03-08T08:07:06;29.27;;;22.17;;
3054;SDS011;1537;52.018;8.542;2024-03-08T08:10:30;32.33;;;21.90;;
3054;SDS011;1537;52.018;8.542;2024-03-08T08:13:56;28.00;;;22.37;;
3054;SDS011;1537;52.018;8.542;2024-03-08T08:17:21;28.30;;;19.80;;
3054;SDS011;1537;52.018;8.542;2024-03-08T08:20:46;27.87;;;21.93;;
3054;SDS011;1537;52.018;8.542;2024-03-08T08:24:10;28.37;;;20.43;;
3054;SDS011;1537;52.018;8.542;2024-03-08T08:27:34;30.40;;;23.70;;
3054;SDS011;1537;52.018;8.542;2024-03-08T08:31:00;28.97;;;22.00;;
3054;SDS011;1537;52.018;8.542;2024-03-08T08:34:26;27.60;;;23.67;;
3054;SDS011;1537;52.018;8.542;2024-03-08T08:37:52;31.30;;;22.27;;
3054;SDS011;1537;52.018;8.542;2024-03-08T08:41:15;28.90;;;21.43;;
3054;SDS011;1537;52.018;8.542;2024-03-08T08:44:40;30.33;;;22.60;;
3054;SDS011;1537;52.018;8.542;2024-03-08T08:48:06;30.70;;;20.93;;
3054;SDS011;1537;52.018;8.542;2024-03-08T08:51:30;30.27;;;23.10;;
3054;SDS011;1537;52.018;8.542;2024-03-08T08:54:59;31.63;;;22.97;;
3054;SDS011;1537;52.018;8.542;2024-03-08T08:58:25;27.20;;;21.33;;
3054;SDS011;1537;52.018;8.542;2024-03-08T09:01:49;32.93;;;24.33;;
3054;SDS011;1537;52.018;8.542;2024-03-08T09:05:15;27.10;;;21.73;;
3054;SDS011;1537;52.018;8.542;2024-03-08T09:08:39;27.63;;;24.23;;
3054;SDS011;1537;52.018;8.542;2024-03-08T09:12:04;28.93;;;20.50;;
3054;SDS011;1537;52.018;8.542;2024-03-08T09:15:29;31.47;;;23.50;;
3054;SDS011;1537;52.018;8.542;2024-03-08T09:18:52;27.27;;;22.57;;
3054;SDS011;1537;52.018;8.542;2024-03-08T09:22:16;27.90;;;24.90;;
3054;SDS011;1537;52.018;8.542;2024-03-08T09:25:42;30.90;;;23.87;;
3054;SDS011;1537;52.018;8.542;2024-03-08T09:29:10;26.37;;;23.47;;
3054;SDS011;1537;52.018;8.542;2024-03-08T09:32:34;28.30;;;20.57;;
3054;SDS011;1537;52.018;8.542;2024-03-08T09:35:58;35.50;;;21.70;;
3054;SDS011;1537;52.018;8.542;2024-03-08T09:39:25;26.87;;;21.57;;
3054;SDS011;1537;52.018;8.542;2024-03-08T09:42:51;33.17;;;20.97;;
3054;SDS011;1537;52.018;8.542;2024-03-08T09:46:18;23.67;;;20.00;;
3054;SDS011;1537;52.018;8.542;2024-03-08T09:49:42;32.70;;;22.50;;
3054;SDS011;1537;52.018;8.542;2024-03-08T09:53:06;24.17;;;19.57;;
3054;SDS011;1537;52.018;8.542;2024-03-08T09:56:30;27.90;;;20.00;;
3054;SDS011;1537;52.018;8.542;2024-03-08T09:59:56;27.47;;;20.20;;
3054;SDS011;1537;52.018;8.542;2024-03-08T10:03:21;27.90;;;20.37;;
3054;SDS011;1537;52.018;8.542;2024-03-08T10:06:44;25.23;;;19.13;;
3054;SDS011;1537;52.018;8.542;2024-03-08T10:10:09;28.93;;;20.90;;
3054;SDS011;1537;52.018;8.542;2024-03-08T10:13:34;28.03;;;19.77;;
3054;SDS011;1537;52.018;8.542;2024-03-08T10:16:58;26.90;;;17.57;;
3054;SDS011;1537;52.018;8.542;2024-03-08T10:20:24;24.90;;;21.37;;
3054;SDS011;1537;52.018;8.542;2024-03-08T10:23:48;25.23;;;18.73;;
3054;SDS011;1537;52.018;8.542;2024-03-08T10:27:13;27.07;;;18.73;;
3054;SDS011;1537;52.018;8.542;2024-03-08T10:30:38;27.43;;;20.40;;
3054;SDS011;1537;52.018;8.542;2024-03-08T10:34:01;25.63;;;19.57;;
3054;SDS011;1537;52.018;8.542;2024-03-08T10:37:28;25.07;;;22.27;;
3054;SDS011;1537;52.018;8.542;2024-03-08T10:40:55;24.67;;;19.97;;
3054;SDS011;1537;52.018;8.542;2024-03-08T10:44:21;25.73;;;17.70;;
3054;SDS011;1537;52.018;8.542;2024-03-08T10:47:54;21.93;;;16.33;;
3054;SDS011;1537;52.018;8.542;2024-03-08T10:51:27;24.57;;;20.23;;
3054;SDS011;1537;52.018;8.542;2024-03-08T10:54:54;25.00;;;20.43;;
3054;SDS011;1537;52.018;8.542;2024-03-08T10:58:21;26.17;;;18.97;;
3054;SDS011;1537;52.018;8.542;2024-03-08T11:01:48;23.20;;;17.40;;
3054;SDS011;1537;52.018;8.542;2024-03-08T11:05:15;21.93;;;14.83;;
3054;SDS011;1537;52.018;8.542;2024-03-08T11:08:57;26.70;;;18.07;;
3054;SDS011;1537;52.018;8.542;2024-03-08T11:12:23;24.50;;;18.33;;
3054;SDS011;1537;52.018;8.542;2024-03-08T11:15:48;26.60;;;20.67;;
3054;SDS011;1537;52.018;8.542;2024-03-08T11:19:24;27.17;;;18.27;;
3054;SDS011;1537;52.018;8.542;2024-03-08T11:22:52;26.47;;;20.57;;
3054;SDS011;1537;52.018;8.542;2024-03-08T11:26:17;26.43;;;19.07;;
3054;SDS011;1537;52.018;8.542;2024-03-08T11:29:43;26.10;;;17.13;;
3054;SDS011;1537;52.018;8.542;2024-03-08T11:33:06;30.53;;;21.50;;
3054;SDS011;1537;52.018;8.542;2024-03-08T11:36:35;32.93;;;22.43;;
3054;SDS011;1537;52.018;8.542;2024-03-08T11:39:59;27.33;;;19.57;;
3054;SDS011;1537;52.018;8.542;2024-03-08T11:43:26;22.83;;;18.53;;
3054;SDS011;1537;52.018;8.542;2024-03-08T11:46:51;27.07;;;21.00;;
3054;SDS011;1537;52.018;8.542;2024-03-08T11:50:16;22.43;;;16.10;;
3054;SDS011;1537;52.018;8.542;2024-03-08T11:53:41;25.47;;;16.40;;
3054;SDS011;1537;52.018;8.542;2024-03-08T11:57:09;28.13;;;19.97;;
3054;SDS011;1537;52.018;8.542;2024-03-08T12:00:33;24.77;;;17.77;;
3054;SDS011;1537;52.018;8.542;2024-03-08T12:04:01;25.53;;;21.43;;
3054;SDS011;1537;52.018;8.542;2024-03-08T12:07:27;26.53;;;20.53;;
3054;SDS011;1537;52.018;8.542;2024-03-08T12:10:52;24.23;;;19.60;;
3054;SDS011;1537;52.018;8.542;2024-03-08T12:14:17;25.53;;;20.80;;
3054;SDS011;1537;52.018;8.542;2024-03-08T12:17:42;26.50;;;17.47;;
3054;SDS011;1537;52.018;8.542;2024-03-08T12:21:08;23.90;;;15.33;;
3054;SDS011;1537;52.018;8.542;2024-03-08T12:24:33;23.57;;;17.97;;
3054;SDS011;1537;52.018;8.542;2024-03-08T12:28:06;25.97;;;20.47;;
3054;SDS011;1537;52.018;8.542;2024-03-08T12:31:32;24.27;;;18.57;;
3054;SDS011;1537;52.018;8.542;2024-03-08T12:34:58;23.67;;;18.47;;
3054;SDS011;1537;52.018;8.542;2024-03-08T12:38:23;18.30;;;14.90;;
3054;SDS011;1537;52.018;8.542;2024-03-08T12:41:50;20.33;;;14.67;;
3054;SDS011;1537;52.018;8.542;2024-03-08T12:45:14;21.90;;;14.53;;
3054;SDS011;1537;52.018;8.542;2024-03-08T12:48:38;21.00;;;16.37;;
3054;SDS011;1537;52.018;8.542;2024-03-08T12:52:03;19.97;;;14.40;;
3054;SDS011;1537;52.018;8.542;2024-03-08T12:55:33;23.20;;;17.93;;
3054;SDS011;1537;52.018;8.542;2024-03-08T12:58:58;18.50;;;13.53;;
3054;SDS011;1537;52.018;8.542;2024-03-08T13:02:22;22.60;;;16.80;;
3054;SDS011;1537;52.018;8.542;2024-03-08T13:05:46;21.53;;;14.60;;
3054;SDS011;1537;52.018;8.542;2024-03-08T13:09:11;22.20;;;16.80;;
3054;SDS011;1537;52.018;8.542;2024-03-08T13:12:37;21.23;;;13.77;;
3054;SDS011;1537;52.018;8.542;2024-03-08T13:16:11;28.43;;;17.47;;
3054;SDS011;1537;52.018;8.542;2024-03-08T13:19:37;20.80;;;16.83;;
3054;SDS011;1537;52.018;8.542;2024-03-08T13:23:04;24.33;;;15.20;;
3054;SDS011;1537;52.018;8.542;2024-03-08T13:26:30;23.80;;;16.23;;
3054;SDS011;1537;52.018;8.542;2024-03-08T13:29:56;28.07;;;19.00;;
3054;SDS011;1537;52.018;8.542;2024-03-08T13:33:20;23.70;;;15.13;;
3054;SDS011;1537;52.018;8.542;2024-03-08T13:36:44;29.60;;;18.67;;
3054;SDS011;1537;52.018;8.542;2024-03-08T13:40:09;24.40;;;16.70;;
3054;SDS011;1537;52.018;8.542;2024-03-08T13:43:35;24.97;;;16.90;;
3054;SDS011;1537;52.018;8.542;2024-03-08T13:47:00;26.80;;;20.83;;
3054;SDS011;1537;52.018;8.542;2024-03-08T13:50:27;21.50;;;16.67;;
3054;SDS011;1537;52.018;8.542;2024-03-08T13:53:52;21.37;;;17.10;;
3054;SDS011;1537;52.018;8.542;2024-03-08T13:57:17;25.00;;;17.50;;
3054;SDS011;1537;52.018;8.542;2024-03-08T14:00:41;23.70;;;15.70;;
3054;SDS011;1537;52.018;8.542;2024-03-08T14:04:10;20.97;;;15.77;;
3054;SDS011;1537;52.018;8.542;2024-03-08T14:07:38;23.77;;;17.87;;
3054;SDS011;1537;52.018;8.542;2024-03-08T14:11:03;20.30;;;14.97;;
3054;SDS011;1537;52.018;8.542;2024-03-08T14:14:33;26.20;;;18.70;;
3054;SDS011;1537;52.018;8.542;2024-03-08T14:18:00;25.73;;;19.07;;
3054;SDS011;1537;52.018;8.542;2024-03-08T14:21:25;26.30;;;18.37;;
3054;SDS011;1537;52.018;8.542;2024-03-08T14:24:49;24.50;;;16.00;;
3054;SDS011;1537;52.018;8.542;2024-03-08T14:28:17;26.03;;;19.07;;
3054;SDS011;1537;52.018;8.542;2024-03-08T14:31:41;26.47;;;17.77;;
3054;SDS011;1537;52.018;8.542;2024-03-08T14:35:05;23.93;;;17.93;;
3054;SDS011;1537;52.018;8.542;2024-03-08T14:38:30;25.60;;;17.83;;
3054;SDS011;1537;52.018;8.542;2024-03-08T14:41:54;22.67;;;15.37;;
3054;SDS011;1537;52.018;8.542;2024-03-08T14:45:17;24.23;;;18.07;;
3054;SDS011;1537;52.018;8.542;2024-03-08T14:48:41;23.90;;;16.60;;
3054;SDS011;1537;52.018;8.542;2024-03-08T14:52:05;20.30;;;14.70;;
3054;SDS011;1537;52.018;8.542;2024-03-08T14:55:50;22.20;;;17.73;;
3054;SDS011;1537;52.018;8.542;2024-03-08T14:59:14;20.00;;;16.47;;
3054;SDS011;1537;52.018;8.542;2024-03-08T15:02:37;21.60;;;17.27;;
3054;SDS011;1537;52.018;8.542;2024-03-08T15:06:02;19.90;;;15.13;;
3054;SDS011;1537;52.018;8.542;2024-03-08T15:09:30;23.43;;;17.63;;
3054;SDS011;1537;52.018;8.542;2024-03-08T15:13:02;20.70;;;17.20;;
3054;SDS011;1537;52.018;8.542;2024-03-08T15:16:36;24.70;;;17.80;;
3054;SDS011;1537;52.018;8.542;2024-03-08T15:20:02;23.53;;;18.50;;
3054;SDS011;1537;52.018;8.542;2024-03-08T15:23:26;24.80;;;19.33;;
3054;SDS011;1537;52.018;8.542;2024-03-08T15:26:49;25.90;;;17.63;;
3054;SDS011;1537;52.018;8.542;2024-03-08T15:30:18;21.67;;;17.20;;
3054;SDS011;1537;52.018;8.542;2024-03-08T15:33:44;29.67;;;19.43;;
3054;SDS011;1537;52.018;8.542;2024-03-08T15:37:10;23.83;;;19.33;;
3054;SDS011;1537;52.018;8.542;2024-03-08T15:40:39;22.03;;;15.00;;
3054;SDS011;1537;52.018;8.542;2024-03-08T15:44:03;24.10;;;17.30;;
3054;SDS011;1537;52.018;8.542;2024-03-08T15:47:29;24.77;;;20.00;;
3054;SDS011;1537;52.018;8.542;2024-03-08T15:50:54;24.60;;;17.60;;
3054;SDS011;1537;52.018;8.542;2024-03-08T15:54:18;22.70;;;18.60;;
3054;SDS011;1537;52.018;8.542;2024-03-08T15:57:43;21.03;;;16.00;;
3054;SDS011;1537;52.018;8.542;2024-03-08T16:01:09;26.57;;;18.17;;
3054;SDS011;1537;52.018;8.542;2024-03-08T16:04:37;28.23;;;20.80;;
3054;SDS011;1537;52.018;8.542;2024-03-08T16:08:03;22.60;;;17.90;;
3054;SDS011;1537;52.018;8.542;2024-03-08T16:11:30;22.87;;;18.13;;
3054;SDS011;1537;52.018;8.542;2024-03-08T16:14:55;26.50;;;18.93;;
3054;SDS011;1537;52.018;8.542;2024-03-08T16:18:19;27.10;;;20.90;;
3054;SDS011;1537;52.018;8.542;2024-03-08T16:21:45;26.27;;;18.43;;
3054;SDS011;1537;52.018;8.542;2024-03-08T16:25:09;26.67;;;19.07;;
3054;SDS011;1537;52.018;8.542;2024-03-08T16:28:34;26.33;;;18.83;;
3054;SDS011;1537;52.018;8.542;2024-03-08T16:32:03;23.00;;;19.70;;
3054;SDS011;1537;52.018;8.542;2024-03-08T16:35:28;31.63;;;22.90;;
3054;SDS011;1537;52.018;8.542;2024-03-08T16:38:59;24.20;;;18.50;;
3054;SDS011;1537;52.018;8.542;2024-03-08T16:42:28;25.30;;;19.60;;
3054;SDS011;1537;52.018;8.542;2024-03-08T16:45:54;24.60;;;19.07;;
3054;SDS011;1537;52.018;8.542;2024-03-08T16:50:05;24.60;;;19.03;;
3054;SDS011;1537;52.018;8.542;2024-03-08T16:59:10;25.20;;;20.77;;
3054;SDS011;1537;52.018;8.542;2024-03-08T17:02:34;24.30;;;18.97;;
3054;SDS011;1537;52.018;8.542;2024-03-08T17:05:59;28.03;;;19.70;;
3054;SDS011;1537;52.018;8.542;2024-03-08T17:09:24;29.20;;;20.70;;
3054;SDS011;1537;52.018;8.542;2024-03-08T17:12:49;28.60;;;19.73;;
3054;SDS011;1537;52.018;8.542;2024-03-08T17:16:16;26.73;;;20.33;;
3054;SDS011;1537;52.018;8.542;2024-03-08T17:19:45;28.20;;;21.30;;
3054;SDS011;1537;52.018;8.542;2024-03-08T17:23:09;31.33;;;23.10;;
3054;SDS011;1537;52.018;8.542;2024-03-08T17:26:36;36.43;;;21.80;;
3054;SDS011;1537;52.018;8.542;2024-03-08T17:30:01;35.13;;;22.77;;
3054;SDS011;1537;52.018;8.542;2024-03-08T17:33:33;32.93;;;24.40;;
3054;SDS011;1537;52.018;8.542;2024-03-08T17:37:05;35.87;;;23.77;;
3054;SDS011;1537;52.018;8.542;2024-03-08T17:40:29;35.13;;;25.83;;
3054;SDS011;1537;52.018;8.542;2024-03-08T17:43:54;34.40;;;24.23;;
3054;SDS011;1537;52.018;8.542;2024-03-08T17:47:18;32.73;;;23.40;;
3054;SDS011;1537;52.018;8.542;2024-03-08T17:50:43;35.93;;;25.10;;
3054;SDS011;1537;52.018;8.542;2024-03-08T17:54:09;38.53;;;24.60;;
3054;SDS011;1537;52.018;8.542;2024-03-08T17:57:35;34.43;;;25.50;;
3054;SDS011;1537;52.018;8.542;2024-03-08T18:01:09;35.17;;;25.37;;
3054;SDS011;1537;52.018;8.542;2024-03-08T18:04:34;31.37;;;22.63;;
3054;SDS011;1537;52.018;8.542;2024-03-08T18:08:18;34.17;;;25.50;;
3054;SDS011;1537;52.018;8.542;2024-03-08T18:11:42;33.30;;;26.10;;
3054;SDS011;1537;52.018;8.542;2024-03-08T18:15:08;32.57;;;23.93;;
3054;SDS011;1537;52.018;8.542;2024-03-08T18:18:32;36.70;;;25.43;;
3054;SDS011;1537;52.018;8.542;2024-03-08T18:21:56;30.17;;;23.20;;
3054;SDS011;1537;52.018;8.542;2024-03-08T18:25:24;34.03;;;24.40;;
3054;SDS011;1537;52.018;8.542;2024-03-08T18:28:51;31.37;;;21.90;;
3054;SDS011;1537;52.018;8.542;2024-03-08T18:32:16;31.43;;;22.00;;
3054;SDS011;1537;52.018;8.542;2024-03-08T18:35:44;33.70;;;24.90;;
3054;SDS011;1537;52.018;8.542;2024-03-08T18:39:09;37.20;;;26.23;;
3054;SDS011;1537;52.018;8.542;2024-03-08T18:42:42;34.50;;;23.73;;
3054;SDS011;1537;52.018;8.542;2024-03-08T18:46:07;32.27;;;24.90;;
3054;SDS011;1537;52.018;8.542;2024-03-08T18:49:34;37.70;;;25.33;;
3054;SDS011;1537;52.018;8.542;2024-03-08T18:52:58;38.10;;;25.13;;
3054;SDS011;1537;52.018;8.542;2024-03-08T18:56:25;34.97;;;25.23;;
3054;SDS011;1537;52.018;8.542;2024-03-08T18:59:51;39.87;;;25.50;;
3054;SDS011;1537;52.018;8.542;2024-03-08T19:03:15;33.87;;;24.73;;
3054;SDS011;1537;52.018;8.542;2024-03-08T19:06:39;36.17;;;26.80;;
3054;SDS011;1537;52.018;8.542;2024-03-08T19:10:02;34.00;;;25.10;;
3054;SDS011;1537;52.018;8.542;2024-03-08T19:13:29;37.00;;;26.63;;
3054;SDS011;1537;52.018;8.542;2024-03-08T19:16:54;34.90;;;25.93;;
3054;SDS011;1537;52.018;8.542;2024-03-08T19:20:18;39.10;;;27.37;;
3054;SDS011;1537;52.018;8.542;2024-03-08T19:23:44;36.03;;;24.50;;
3054;SDS011;1537;52.018;8.542;2024-03-08T19:27:08;38.87;;;28.30;;
3054;SDS011;1537;52.018;8.542;2024-03-08T19:30:34;39.77;;;25.27;;
3054;SDS011;1537;52.018;8.542;2024-03-08T19:34:01;39.27;;;25.63;;
3054;SDS011;1537;52.018;8.542;2024-03-08T19:37:27;40.73;;;28.80;;
3054;SDS011;1537;52.018;8.542;2024-03-08T19:40:52;36.70;;;26.77;;
3054;SDS011;1537;52.018;8.542;2024-03-08T19:44:16;37.40;;;25.50;;
3054;SDS011;1537;52.018;8.542;2024-03-08T19:47:46;36.87;;;26.20;;
3054;SDS011;1537;52.018;8.542;2024-03-08T19:51:11;34.80;;;25.43;;
3054;SDS011;1537;52.018;8.542;2024-03-08T19:54:41;42.80;;;28.60;;
3054;SDS011;1537;52.018;8.542;2024-03-08T19:58:06;40.00;;;26.30;;
3054;SDS011;1537;52.018;8.542;2024-03-08T20:01:32;36.17;;;26.70;;
3054;SDS011;1537;52.018;8.542;2024-03-08T20:04:56;36.60;;;26.40;;
3054;SDS011;1537;52.018;8.542;2024-03-08T20:08:27;38.83;;;27.00;;
3054;SDS011;1537;52.018;8.542;2024-03-08T20:11:52;36.53;;;26.80;;
3054;SDS011;1537;52.018;8.542;2024-03-08T20:15:20;39.80;;;25.20;;
3054;SDS011;1537;52.018;8.542;2024-03-08T20:18:47;37.77;;;26.70;;
3054;SDS011;1537;52.018;8.542;2024-03-08T20:22:15;34.93;;;25.83;;
3054;SDS011;1537;52.018;8.542;2024-03-08T20:25:40;34.00;;;24.70;;
3054;SDS011;1537;52.018;8.542;2024-03-08T20:29:08;33.70;;;24.40;;
3054;SDS011;1537;52.018;8.542;2024-03-08T20:32:38;37.13;;;27.00;;
3054;SDS011;1537;52.018;8.542;2024-03-08T20:36:03;34.13;;;25.30;;
3054;SDS011;1537;52.018;8.542;2024-03-08T20:39:31;39.90;;;25.80;;
3054;SDS011;1537;52.018;8.542;2024-03-08T20:42:56;36.90;;;24.80;;
3054;SDS011;1537;52.018;8.542;2024-03-08T20:46:20;35.63;;;25.53;;
3054;SDS011;1537;52.018;8.542;2024-03-08T20:49:44;35.93;;;27.03;;
3054;SDS011;1537;52.018;8.542;2024-03-08T20:53:09;38.60;;;27.07;;
3054;SDS011;1537;52.018;8.542;2024-03-08T20:56:34;36.43;;;25.50;;